Time;durP1;ratioP1;P1;durP2;ratioP2;P2;SDS_P1;SDS_P2;PMS_P1;PMS_P2;Temp;Humidity;BMP_temperature;BMP_pressure;BME280_temperature;BME280_humidity;BME280_pressure;Samples;Min_cycle;Max_cycle;Signal;HPM_P1;HPM_P2
2023/04/27 00:02:12;;;;;;;7.35;3.30;;;4.30;99.90;;;;;;4967613;28;20045;-81
2023/04/27 00:04:37;;;;;;;5.55;4.15;;;3.10;99.90;;;;;;4961089;28;20463;-80
2023/04/27 00:07:03;;;;;;;10.60;4.32;;;3.00;99.90;;;;;;4925812;29;20055;-80
2023/04/27 00:09:30;;;;;;;5.97;3.70;;;4.90;99.90;;;;;;4959830;28;20426;-79
2023/04/27 00:11:55;;;;;;;10.18;4.47;;;3.20;99.90;;;;;;4961479;28;20050;-79
2023/04/27 00:14:21;;;;;;;11.00;4.72;;;3.10;99.90;;;;;;4977698;28;20057;-80
2023/04/27 00:16:50;;;;;;;11.27;3.90;;;3.10;99.90;;;;;;4958797;28;20063;-80
2023/04/27 00:19:15;;;;;;;10.73;4.40;;;3.20;99.90;;;;;;4957996;28;20571;-80
2023/04/27 00:21:42;;;;;;;7.15;3.97;;;3.10;99.90;;;;;;4961180;28;20409;-79
2023/04/27 00:24:08;;;;;;;4.78;3.85;;;5.00;99.90;;;;;;4945989;28;20051;-80
2023/04/27 00:26:34;;;;;;;7.10;3.97;;;3.10;99.90;;;;;;4959795;28;20114;-80
2023/04/27 00:29:00;;;;;;;10.10;4.57;;;3.30;99.90;;;;;;4941840;29;20511;-80
2023/04/27 00:31:25;;;;;;;6.03;4.50;;;3.30;99.90;;;;;;4960120;28;20047;-80
2023/04/27 00:33:51;;;;;;;6.93;4.25;;;4.50;99.90;;;;;;4962212;28;20130;-80
2023/04/27 00:36:16;;;;;;;8.80;4.40;;;3.30;99.90;;;;;;4977809;28;20054;-79
2023/04/27 00:38:42;;;;;;;10.68;5.25;;;4.70;99.90;;;;;;4958792;28;20053;-81
2023/04/27 00:41:08;;;;;;;6.72;4.63;;;6.50;99.90;;;;;;4957702;28;20130;-80
2023/04/27 00:43:44;;;;;;;7.03;4.35;;;3.40;99.90;;;;;;4943170;28;20141;-80
2023/04/27 00:46:12;;;;;;;11.90;4.95;;;6.50;99.90;;;;;;4969480;28;20105;-79
2023/04/27 00:48:38;;;;;;;7.60;4.80;;;3.00;99.90;;;;;;4958748;28;20050;-80
2023/04/27 00:51:05;;;;;;;8.00;4.68;;;6.50;99.90;;;;;;4942479;29;20408;-80
2023/04/27 00:53:31;;;;;;;7.43;4.97;;;3.60;99.90;;;;;;4942328;28;20057;-79
2023/04/27 00:55:57;;;;;;;6.00;4.70;;;3.30;99.90;;;;;;4961975;28;20046;-78
2023/04/27 00:58:23;;;;;;;6.68;4.68;;;3.50;99.90;;;;;;4960962;28;20061;-78
2023/04/27 01:00:49;;;;;;;7.03;4.72;;;5.60;99.90;;;;;;4958671;28;20074;-79
2023/04/27 01:03:16;;;;;;;6.68;4.60;;;3.50;99.90;;;;;;4956958;28;20118;-78
2023/04/27 01:05:42;;;;;;;7.25;4.78;;;4.00;99.90;;;;;;4960146;28;20047;-78
2023/04/27 01:08:08;;;;;;;6.72;4.53;;;3.10;99.90;;;;;;4977378;28;20043;-78
2023/04/27 01:10:34;;;;;;;6.20;3.95;;;3.50;99.90;;;;;;4959336;28;20038;-79
2023/04/27 01:13:00;;;;;;;7.45;4.53;;;5.20;99.90;;;;;;4941475;28;20110;-79
2023/04/27 01:15:27;;;;;;;7.95;4.55;;;3.40;99.90;;;;;;4957122;28;20389;-78
2023/04/27 01:17:57;;;;;;;8.23;4.00;;;3.30;99.90;;;;;;4961019;28;20039;-79
2023/04/27 01:20:23;;;;;;;4.80;3.92;;;3.20;99.90;;;;;;4962223;28;20058;-79
2023/04/27 01:22:49;;;;;;;5.20;3.72;;;3.30;99.90;;;;;;4957560;28;20044;-79
2023/04/27 01:25:15;;;;;;;5.18;4.20;;;4.10;99.90;;;;;;4941843;29;20398;-79
2023/04/27 01:27:40;;;;;;;6.97;4.75;;;3.30;99.90;;;;;;4943224;28;20142;-79
2023/04/27 01:30:06;;;;;;;6.65;4.68;;;5.60;99.90;;;;;;4960418;28;20059;-79
2023/04/27 01:32:36;;;;;;;7.28;4.65;;;3.20;99.90;;;;;;4963226;28;20051;-80
2023/04/27 01:35:06;;;;;;;13.00;5.03;;;2.90;99.90;;;;;;4961280;28;20478;-80
2023/04/27 01:37:31;;;;;;;5.35;4.82;;;3.10;99.90;;;;;;4961401;28;20062;-80
2023/04/27 01:39:57;;;;;;;6.53;4.38;;;3.00;99.90;;;;;;4972835;28;20051;-79
2023/04/27 01:42:23;;;;;;;6.65;4.13;;;5.50;99.90;;;;;;4971257;28;20396;-79
2023/04/27 01:44:51;;;;;;;4.78;3.65;;;5.70;99.90;;;;;;4961383;28;20423;-79
2023/04/27 01:47:17;;;;;;;9.60;4.28;;;2.90;99.90;;;;;;4945010;29;20059;-80
2023/04/27 01:49:43;;;;;;;6.63;3.70;;;2.90;99.90;;;;;;4961103;28;20047;-79
2023/04/27 01:52:09;;;;;;;9.07;4.60;;;2.90;99.90;;;;;;4944254;29;20058;-79
2023/04/27 01:54:38;;;;;;;6.10;4.47;;;5.00;99.90;;;;;;4962120;28;20051;-79
2023/04/27 01:57:04;;;;;;;6.68;4.45;;;5.10;99.90;;;;;;4964152;28;20462;-79
2023/04/27 01:59:30;;;;;;;4.85;4.32;;;5.50;99.90;;;;;;4947402;28;20062;-79
2023/04/27 02:01:55;;;;;;;5.57;4.40;;;3.10;99.90;;;;;;4961048;28;20163;-79
2023/04/27 02:04:21;;;;;;;7.80;4.03;;;2.70;99.90;;;;;;4960693;28;20051;-79
2023/04/27 02:06:47;;;;;;;5.97;4.55;;;2.70;99.90;;;;;;4962728;28;20413;-78
2023/04/27 02:09:13;;;;;;;6.72;4.20;;;2.60;99.90;;;;;;4964186;28;20080;-80
2023/04/27 02:11:38;;;;;;;5.90;4.72;;;2.70;99.90;;;;;;4955117;28;20474;-79
2023/04/27 02:14:04;;;;;;;6.00;4.28;;;2.70;99.90;;;;;;4965488;28;20073;-79
2023/04/27 02:16:29;;;;;;;5.57;4.18;;;2.60;99.90;;;;;;4964155;28;20414;-78
2023/04/27 02:18:56;;;;;;;5.30;4.72;;;;;;;;;;4961089;28;20047;-78
2023/04/27 02:21:22;;;;;;;6.05;4.47;;;;;;;;;;4944562;28;20098;-79
2023/04/27 02:23:47;;;;;;;6.40;4.15;;;2.60;99.90;;;;;;4946760;28;20514;-79
2023/04/27 02:26:21;;;;;;;7.90;4.63;;;2.40;99.90;;;;;;4964592;28;20047;-80
2023/04/27 02:28:47;;;;;;;7.72;4.35;;;2.60;99.90;;;;;;4978117;28;20051;-79
2023/04/27 02:31:13;;;;;;;5.13;4.40;;;2.50;99.90;;;;;;4944688;29;20105;-80
2023/04/27 02:33:40;;;;;;;9.60;5.13;;;2.30;99.90;;;;;;4960227;28;20547;-79
2023/04/27 02:36:07;;;;;;;6.38;4.05;;;2.50;99.90;;;;;;4963818;28;20487;-80
2023/04/27 02:38:34;;;;;;;7.47;5.07;;;2.50;99.90;;;;;;4962527;28;20054;-79
2023/04/27 02:40:59;;;;;;;8.32;4.95;;;4.10;99.90;;;;;;4959713;28;20047;-79
2023/04/27 02:43:25;;;;;;;5.30;4.55;;;4.20;99.90;;;;;;4942718;28;20518;-79
2023/04/27 02:45:51;;;;;;;7.97;5.35;;;4.80;99.90;;;;;;4963032;28;20086;-79
2023/04/27 02:48:17;;;;;;;7.68;4.90;;;2.40;99.90;;;;;;4962616;28;20055;-77
2023/04/27 02:50:43;;;;;;;7.38;4.57;;;4.80;99.90;;;;;;4961575;28;20058;-78
2023/04/27 02:53:10;;;;;;;5.93;5.32;;;4.90;99.90;;;;;;4959841;28;20389;-79
2023/04/27 02:55:37;;;;;;;8.90;6.03;;;4.20;99.90;;;;;;4943340;28;20609;-78
2023/04/27 02:58:03;;;;;;;6.45;4.65;;;3.30;99.90;;;;;;4963287;28;20045;-78
2023/04/27 03:00:30;;;;;;;7.03;5.18;;;2.30;99.90;;;;;;4963455;28;20050;-78
2023/04/27 03:02:55;;;;;;;6.55;4.20;;;2.20;99.90;;;;;;4975125;28;20054;-77
2023/04/27 03:05:21;;;;;;;5.00;4.47;;;4.80;99.90;;;;;;4960947;28;20562;-79
2023/04/27 03:07:47;;;;;;;10.23;4.90;;;2.50;99.90;;;;;;4961123;28;20063;-79
2023/04/27 03:10:13;;;;;;;7.28;4.95;;;3.20;99.90;;;;;;4947194;28;20402;-80
2023/04/27 03:12:39;;;;;;;5.90;5.10;;;4.30;99.90;;;;;;4963010;28;20061;-79
2023/04/27 03:15:05;;;;;;;8.30;4.70;;;3.70;99.90;;;;;;4960462;28;20166;-80
2023/04/27 03:17:31;;;;;;;7.45;4.85;;;2.10;99.90;;;;;;4959328;28;20047;-79
2023/04/27 03:19:56;;;;;;;5.93;4.35;;;1.90;99.90;;;;;;4946354;28;20207;-79
2023/04/27 03:22:22;;;;;;;5.43;4.70;;;2.00;99.90;;;;;;4962676;28;20047;-79
2023/04/27 03:24:48;;;;;;;10.73;4.43;;;2.00;99.90;;;;;;4966920;28;20053;-79
2023/04/27 03:27:13;;;;;;;8.68;5.85;;;2.50;99.90;;;;;;4944434;29;20538;-79
2023/04/27 03:29:39;;;;;;;5.88;4.25;;;1.90;99.90;;;;;;4959226;28;20086;-80
2023/04/27 03:32:05;;;;;;;4.65;4.25;;;4.10;99.90;;;;;;4946561;28;20050;-79
2023/04/27 03:34:31;;;;;;;6.65;4.97;;;2.50;99.90;;;;;;4962418;28;20560;-78
2023/04/27 03:36:57;;;;;;;8.20;4.57;;;2.00;99.90;;;;;;4958378;28;20086;-79
2023/04/27 03:39:22;;;;;;;6.43;4.85;;;3.40;99.90;;;;;;4959511;28;20051;-79
2023/04/27 03:41:48;;;;;;;11.43;6.07;;;1.90;99.90;;;;;;4945106;28;20060;-79
2023/04/27 03:44:14;;;;;;;7.93;4.70;;;1.90;99.90;;;;;;4961589;28;20514;-79
2023/04/27 03:46:39;;;;;;;10.27;4.80;;;3.40;99.90;;;;;;4961636;28;20058;-79
2023/04/27 03:49:06;;;;;;;7.25;4.90;;;1.60;99.90;;;;;;4960145;28;20086;-77
2023/04/27 03:51:32;;;;;;;7.45;5.05;;;1.70;99.90;;;;;;4958102;28;20051;-77
2023/04/27 03:53:58;;;;;;;5.97;4.60;;;1.50;99.90;;;;;;4945146;28;20109;-79
2023/04/27 03:56:24;;;;;;;10.75;5.10;;;1.70;99.90;;;;;;4962117;28;20423;-79
2023/04/27 03:58:50;;;;;;;5.85;4.80;;;1.70;99.90;;;;;;4959962;28;20054;-79
2023/04/27 04:01:17;;;;;;;6.30;4.93;;;1.80;99.90;;;;;;4943195;29;20066;-79
2023/04/27 04:03:43;;;;;;;9.68;5.20;;;1.80;99.90;;;;;;4943381;28;20150;-80
2023/04/27 04:06:09;;;;;;;9.05;4.70;;;2.30;99.90;;;;;;4945404;28;20193;-80
2023/04/27 04:08:35;;;;;;;6.75;4.55;;;1.80;99.90;;;;;;4961917;28;20055;-79
2023/04/27 04:11:01;;;;;;;8.70;4.70;;;4.00;99.90;;;;;;4978159;28;20066;-80
2023/04/27 04:13:26;;;;;;;7.55;4.50;;;3.50;99.90;;;;;;4961178;28;20050;-78
2023/04/27 04:16:03;;;;;;;5.80;4.72;;;0.10;99.90;;;;;;4959997;28;20051;-79
2023/04/27 04:18:29;;;;;;;8.80;4.80;;;2.60;99.90;;;;;;4942027;29;20504;-79
2023/04/27 04:20:57;;;;;;;6.82;4.43;;;1.40;99.90;;;;;;4950193;28;20058;-78
2023/04/27 04:23:23;;;;;;;7.25;5.22;;;;;;;;;;4959418;28;20090;-78
2023/04/27 04:25:49;;;;;;;6.40;4.35;;;1.60;99.90;;;;;;4959521;28;20506;-78
2023/04/27 04:28:16;;;;;;;8.68;4.95;;;1.00;99.90;;;;;;4960832;28;20620;-78
2023/04/27 04:30:42;;;;;;;9.60;4.93;;;2.60;99.90;;;;;;4961141;28;20042;-79
2023/04/27 04:33:08;;;;;;;5.57;4.60;;;3.00;99.90;;;;;;4945269;28;20054;-79
2023/04/27 04:35:37;;;;;;;12.55;5.70;;;3.80;99.90;;;;;;4977578;28;20402;-80
2023/04/27 04:38:03;;;;;;;7.53;5.28;;;1.60;99.90;;;;;;4961488;28;20458;-80
2023/04/27 04:40:28;;;;;;;12.10;5.40;;;1.50;99.90;;;;;;4960662;28;20051;-79
2023/04/27 04:42:54;;;;;;;6.78;4.97;;;1.60;99.90;;;;;;4959533;28;20081;-79
2023/04/27 04:45:20;;;;;;;7.53;4.90;;;1.60;99.90;;;;;;4958064;28;20489;-79
2023/04/27 04:47:46;;;;;;;7.93;5.25;;;1.40;99.90;;;;;;4958400;28;20061;-79
2023/04/27 04:50:12;;;;;;;8.32;4.95;;;1.50;99.90;;;;;;4962512;28;20085;-79
2023/04/27 04:52:38;;;;;;;11.73;5.32;;;1.60;99.90;;;;;;4976860;28;20047;-79
2023/04/27 04:55:04;;;;;;;14.20;4.93;;;4.10;99.90;;;;;;4973724;28;20098;-78
2023/04/27 04:57:30;;;;;;;7.68;4.88;;;1.70;99.90;;;;;;4958946;28;20047;-79
2023/04/27 04:59:56;;;;;;;9.77;5.05;;;4.50;99.90;;;;;;4959989;28;20060;-79
2023/04/27 05:02:22;;;;;;;5.55;5.00;;;1.70;99.90;;;;;;4960505;28;20054;-78
2023/04/27 05:04:48;;;;;;;8.15;5.28;;;1.70;99.90;;;;;;4961555;28;20079;-79
2023/04/27 05:07:13;;;;;;;9.18;5.32;;;1.70;99.90;;;;;;4961624;28;20055;-79
2023/04/27 05:09:39;;;;;;;7.60;5.03;;;1.70;99.90;;;;;;4969166;28;20055;-79
2023/04/27 05:12:05;;;;;;;4.80;4.07;;;1.70;99.90;;;;;;4965095;28;20580;-78
2023/04/27 05:14:31;;;;;;;5.57;4.88;;;1.80;99.90;;;;;;4965843;28;20063;-78
2023/04/27 05:16:57;;;;;;;7.53;5.30;;;1.70;99.90;;;;;;4979088;28;20134;-79
2023/04/27 05:19:24;;;;;;;7.22;5.38;;;1.80;99.90;;;;;;4963041;28;20142;-80
2023/04/27 05:21:50;;;;;;;8.23;5.45;;;1.90;99.90;;;;;;4963562;28;20099;-78
2023/04/27 05:24:16;;;;;;;7.75;4.93;;;4.50;99.90;;;;;;4965146;28;20462;-79
2023/04/27 05:26:42;;;;;;;6.97;5.65;;;2.00;99.90;;;;;;4964637;28;20162;-79
2023/04/27 05:29:08;;;;;;;9.88;5.63;;;1.80;99.90;;;;;;4962169;28;20097;-79
2023/04/27 05:31:33;;;;;;;10.13;5.25;;;2.00;99.90;;;;;;4962822;28;20055;-80
2023/04/27 05:33:59;;;;;;;12.48;5.45;;;2.10;99.90;;;;;;4964483;28;20055;-80
2023/04/27 05:36:25;;;;;;;6.93;4.93;;;2.00;99.90;;;;;;4963844;28;20556;-79
2023/04/27 05:38:51;;;;;;;7.85;5.00;;;2.10;99.90;;;;;;4980324;28;20105;-80
2023/04/27 05:41:17;;;;;;;8.82;5.20;;;2.10;99.90;;;;;;4961221;28;20051;-79
2023/04/27 05:43:45;;;;;;;11.75;6.38;;;2.00;99.90;;;;;;4961010;28;20054;-78
2023/04/27 05:46:14;;;;;;;6.50;5.80;;;2.20;99.90;;;;;;4964517;28;20447;-79
2023/04/27 05:48:40;;;;;;;7.82;5.35;;;1.60;99.90;;;;;;4980668;28;20058;-80
2023/04/27 05:51:06;;;;;;;8.77;5.32;;;2.20;99.90;;;;;;4977002;28;20047;-79
2023/04/27 05:53:33;;;;;;;12.40;5.22;;;2.20;99.90;;;;;;4944757;28;20055;-79
2023/04/27 05:55:59;;;;;;;9.07;5.22;;;2.30;99.90;;;;;;4962921;28;20379;-79
2023/04/27 05:58:26;;;;;;;7.93;5.15;;;2.30;99.90;;;;;;4963522;28;20046;-78
2023/04/27 06:00:52;;;;;;;8.27;4.63;;;2.30;99.90;;;;;;4963955;28;20133;-79
2023/04/27 06:03:19;;;;;;;8.38;4.72;;;2.40;99.90;;;;;;4962193;28;20051;-80
2023/04/27 06:05:45;;;;;;;8.45;4.50;;;2.20;99.90;;;;;;4944335;29;20063;-79
2023/04/27 06:08:11;;;;;;;5.47;4.10;;;2.50;99.90;;;;;;4962097;28;20055;-79
2023/04/27 06:10:38;;;;;;;6.30;4.07;;;3.00;99.90;;;;;;4944722;29;20093;-78
2023/04/27 06:13:03;;;;;;;10.18;4.13;;;2.70;99.90;;;;;;4964365;28;20504;-78
2023/04/27 06:15:29;;;;;;;4.95;3.80;;;2.80;99.90;;;;;;4964019;28;20055;-78
2023/04/27 06:17:55;;;;;;;7.30;4.70;;;4.10;99.90;;;;;;4978092;28;20046;-79
2023/04/27 06:20:21;;;;;;;4.25;3.83;;;5.90;99.90;;;;;;4944995;29;20066;-77
2023/04/27 06:22:47;;;;;;;5.43;4.38;;;5.50;99.90;;;;;;4960577;28;20047;-79
2023/04/27 06:25:12;;;;;;;8.32;4.35;;;3.10;99.90;;;;;;4947358;28;20057;-79
2023/04/27 06:27:38;;;;;;;6.78;4.35;;;5.60;99.90;;;;;;4963986;28;20403;-79
2023/04/27 06:30:05;;;;;;;7.95;5.97;;;3.20;99.90;;;;;;4962915;28;20055;-79
2023/04/27 06:32:30;;;;;;;11.00;4.93;;;3.70;99.90;;;;;;4959578;28;20090;-79
2023/04/27 06:34:56;;;;;;;6.30;4.20;;;3.40;99.90;;;;;;4961224;28;20083;-79
2023/04/27 06:37:22;;;;;;;7.35;4.75;;;3.60;99.90;;;;;;4979355;28;20483;-79
2023/04/27 06:39:47;;;;;;;5.70;3.55;;;6.20;99.90;;;;;;4964302;28;20058;-78
2023/04/27 06:42:13;;;;;;;7.78;3.50;;;4.10;99.90;;;;;;4960491;28;20039;-78
2023/04/27 06:44:39;;;;;;;4.43;3.15;;;3.90;99.90;;;;;;4966710;28;20050;-78
2023/04/27 06:47:05;;;;;;;5.93;3.40;;;4.10;99.90;;;;;;4976864;28;20233;-79
2023/04/27 06:49:30;;;;;;;7.68;3.28;;;4.30;99.90;;;;;;4945772;29;20412;-78
2023/04/27 06:51:57;;;;;;;5.75;3.67;;;6.00;99.90;;;;;;4966386;28;20039;-79
2023/04/27 06:54:24;;;;;;;4.80;2.80;;;4.40;99.90;;;;;;4984893;28;20051;-79
2023/04/27 06:56:49;;;;;;;6.40;3.25;;;4.60;99.90;;;;;;4963763;28;20055;-80
2023/04/27 06:59:15;;;;;;;3.67;2.97;;;6.90;99.90;;;;;;4963314;28;20070;-79
2023/04/27 07:01:41;;;;;;;6.35;3.70;;;4.80;99.90;;;;;;4978881;28;20050;-79
2023/04/27 07:04:07;;;;;;;5.32;2.80;;;7.20;99.90;;;;;;4961395;28;20446;-79
2023/04/27 07:06:32;;;;;;;6.75;3.58;;;4.90;99.90;;;;;;4961010;28;20043;-78
2023/04/27 07:08:58;;;;;;;7.22;2.63;;;5.10;99.90;;;;;;4960051;28;20077;-79
2023/04/27 07:11:25;;;;;;;3.30;2.28;;;5.20;99.90;;;;;;4964505;28;20043;-79
2023/04/27 07:13:50;;;;;;;5.55;2.63;;;3.30;99.90;;;;;;4962972;28;20057;-79
2023/04/27 07:16:16;;;;;;;7.65;2.20;;;5.40;99.90;;;;;;4960206;28;20126;-79
2023/04/27 07:18:42;;;;;;;6.55;2.85;;;5.40;99.90;;;;;;4943129;29;20491;-80
2023/04/27 07:21:08;;;;;;;8.32;2.60;;;8.00;99.90;;;;;;4960847;28;20503;-80
2023/04/27 07:23:34;;;;;;;5.05;2.15;;;5.50;99.90;;;;;;4963396;28;20509;-80
2023/04/27 07:26:00;;;;;;;4.80;2.45;;;5.50;99.90;;;;;;4969690;28;20050;-79
2023/04/27 07:28:27;;;;;;;3.10;2.03;;;5.70;99.90;;;;;;4942242;28;20125;-78
2023/04/27 07:30:53;;;;;;;4.43;2.35;;;8.00;99.90;;;;;;4959133;28;20047;-80
2023/04/27 07:33:19;;;;;;;4.60;2.25;;;5.90;99.90;;;;;;4946108;28;20050;-79
2023/04/27 07:35:44;;;;;;;5.97;2.35;;;6.10;99.90;;;;;;4963347;28;20395;-80
2023/04/27 07:38:10;;;;;;;3.40;2.28;;;6.20;99.90;;;;;;4960021;28;20063;-80
2023/04/27 07:40:36;;;;;;;5.80;2.25;;;6.30;99.90;;;;;;4960329;28;20519;-79
2023/04/27 07:43:02;;;;;;;5.18;2.10;;;8.20;99.90;;;;;;4965758;28;20066;-81
2023/04/27 07:45:32;;;;;;;5.25;2.75;;;6.30;99.90;;;;;;4942571;29;20094;-79
2023/04/27 07:47:59;;;;;;;4.68;2.42;;;8.80;99.90;;;;;;4958817;28;20047;-79
2023/04/27 07:50:25;;;;;;;5.05;2.05;;;6.50;99.90;;;;;;4961289;28;20055;-78
2023/04/27 07:52:52;;;;;;;5.38;2.30;;;6.40;99.90;;;;;;4961800;28;20082;-79
2023/04/27 07:55:20;;;;;;;4.95;1.70;;;7.50;99.90;;;;;;4960063;28;20503;-80
2023/04/27 07:57:46;;;;;;;4.93;1.60;;;6.70;99.90;;;;;;4959509;28;20055;-79
2023/04/27 08:00:12;;;;;;;3.60;1.73;;;6.80;99.90;;;;;;4929020;28;20137;-79
2023/04/27 08:02:37;;;;;;;5.97;1.75;;;6.80;99.90;;;;;;4937730;28;20058;-80
2023/04/27 08:05:03;;;;;;;2.45;1.30;;;6.90;99.90;;;;;;4952485;28;20503;-79
2023/04/27 08:07:30;;;;;;;1.92;1.30;;;6.90;99.90;;;;;;4942241;29;20049;-79
2023/04/27 08:09:56;;;;;;;4.85;1.15;;;6.90;99.90;;;;;;4926476;29;20098;-78
2023/04/27 08:12:22;;;;;;;3.00;1.58;;;7.10;99.90;;;;;;4945128;28;20043;-79
2023/04/27 08:14:48;;;;;;;3.05;1.30;;;7.10;99.90;;;;;;4963236;28;20118;-79
2023/04/27 08:17:13;;;;;;;1.52;0.75;;;7.20;99.90;;;;;;4959799;28;20478;-79
2023/04/27 08:19:40;;;;;;;4.53;1.48;;;7.20;99.90;;;;;;4942319;29;20166;-78
2023/04/27 08:22:05;;;;;;;4.20;1.10;;;9.50;99.90;;;;;;4960440;28;20122;-78
2023/04/27 08:24:31;;;;;;;2.75;0.95;;;9.60;99.90;;;;;;4961856;28;20125;-79
2023/04/27 08:26:57;;;;;;;1.13;0.77;;;7.40;99.90;;;;;;4961471;28;20070;-79
2023/04/27 08:29:23;;;;;;;1.90;0.80;;;9.60;99.90;;;;;;4942431;28;20055;-79
2023/04/27 08:31:48;;;;;;;3.88;1.20;;;7.50;99.90;;;;;;4959610;28;20054;-79
2023/04/27 08:34:14;;;;;;;2.95;1.15;;;7.60;99.90;;;;;;4951464;28;20058;-80
2023/04/27 08:36:40;;;;;;;5.72;1.90;;;8.50;99.90;;;;;;4929870;28;20050;-80
2023/04/27 08:39:06;;;;;;;6.55;1.15;;;7.90;99.90;;;;;;4951692;28;20497;-80
2023/04/27 08:41:32;;;;;;;2.95;0.90;;;9.00;99.90;;;;;;4941854;29;20395;-80
2023/04/27 08:43:58;;;;;;;2.97;1.02;;;7.80;99.90;;;;;;4925907;29;20055;-79
2023/04/27 08:46:27;;;;;;;3.25;1.35;;;8.00;99.90;;;;;;4961784;28;20050;-79
2023/04/27 08:48:53;;;;;;;2.28;1.08;;;8.00;99.90;;;;;;4937850;28;20051;-80
2023/04/27 08:51:20;;;;;;;3.83;1.85;;;10.10;99.90;;;;;;4942918;28;20054;-80
2023/04/27 08:53:50;;;;;;;4.30;1.27;;;8.00;99.90;;;;;;4944333;28;20138;-80
2023/04/27 08:56:17;;;;;;;3.55;0.80;;;7.90;99.90;;;;;;4959977;28;20090;-80
2023/04/27 08:58:43;;;;;;;3.42;1.38;;;9.80;99.90;;;;;;4962566;28;20043;-80
2023/04/27 09:01:09;;;;;;;4.70;1.80;;;8.60;99.90;;;;;;4959661;28;20055;-80
2023/04/27 09:03:35;;;;;;;8.77;1.50;;;10.80;99.90;;;;;;4959183;28;20051;-79
2023/04/27 09:06:05;;;;;;;3.90;1.30;;;8.30;99.90;;;;;;4957776;28;20052;-80
2023/04/27 09:08:44;;;;;;;3.33;1.75;;;8.40;99.90;;;;;;4957246;28;20051;-80
2023/04/27 09:11:10;;;;;;;2.85;1.52;;;8.50;99.90;;;;;;4941987;29;20047;-80
2023/04/27 09:13:37;;;;;;;7.65;1.77;;;8.50;99.90;;;;;;4958254;28;20054;-80
2023/04/27 09:16:03;;;;;;;3.08;1.17;;;9.10;99.90;;;;;;4941975;29;20110;-80
2023/04/27 09:18:32;;;;;;;6.53;1.30;;;8.70;99.90;;;;;;4957857;28;20440;-80
2023/04/27 09:20:59;;;;;;;2.08;0.93;;;8.60;99.90;;;;;;4958545;28;20047;-80
2023/04/27 09:23:28;;;;;;;2.92;1.30;;;11.10;99.90;;;;;;4960038;28;20050;-80
2023/04/27 09:25:58;;;;;;;6.35;3.30;;;8.70;99.90;;;;;;4961249;28;20517;-79
2023/04/27 09:28:26;;;;;;;3.55;1.98;;;9.00;99.90;;;;;;4957974;28;20051;-80
2023/04/27 09:30:57;;;;;;;6.75;1.55;;;10.60;99.90;;;;;;4958310;28;20125;-81
2023/04/27 09:33:28;;;;;;;3.80;1.50;;;9.20;99.90;;;;;;4959848;28;20055;-80
2023/04/27 09:35:55;;;;;;;3.78;1.45;;;10.40;99.90;;;;;;4961798;28;20054;-81
2023/04/27 09:38:21;;;;;;;5.82;1.65;;;10.30;99.90;;;;;;4958563;28;20057;-80
2023/04/27 09:40:49;;;;;;;6.82;2.50;;;9.10;99.90;;;;;;4941638;29;20052;-81
2023/04/27 09:43:15;;;;;;;3.42;1.60;;;9.10;99.90;;;;;;4958811;28;20059;-80
2023/04/27 09:45:41;;;;;;;5.13;2.08;;;11.30;99.90;;;;;;4960822;28;20054;-80
2023/04/27 09:48:08;;;;;;;3.03;1.70;;;9.20;99.90;;;;;;4960641;28;20051;-80
2023/04/27 09:50:39;;;;;;;4.22;2.60;;;9.30;99.90;;;;;;4956804;28;20066;-80
2023/04/27 09:53:08;;;;;;;3.42;2.17;;;11.60;99.90;;;;;;4943173;28;20145;-81
2023/04/27 09:55:58;;;;;;;9.13;2.78;;;9.80;99.90;;;;;;4948226;28;20043;-80
2023/04/27 09:58:32;;;;;;;5.60;2.00;;;9.80;99.90;;;;;;4946553;28;20059;-81
2023/04/27 10:01:23;;;;;;;6.18;3.00;;;9.80;99.90;;;;;;4929218;29;20134;-80
2023/04/27 10:03:48;;;;;;;7.47;2.38;;;9.90;99.90;;;;;;4961309;28;20458;-80
2023/04/27 10:06:27;;;;;;;4.30;2.50;;;12.00;99.90;;;;;;4929861;28;20051;-81
2023/04/27 10:08:55;;;;;;;6.40;3.33;;;10.00;99.90;;;;;;4948736;28;20118;-80
2023/04/27 10:11:32;;;;;;;6.15;3.08;;;11.70;99.90;;;;;;4954188;28;20043;-81
2023/04/27 10:14:04;;;;;;;2.67;2.30;;;9.90;99.90;;;;;;4951750;28;20054;-81
2023/04/27 10:16:43;;;;;;;9.77;3.30;;;10.00;99.90;;;;;;4945342;28;20090;-81
2023/04/27 10:19:09;;;;;;;6.20;2.55;;;9.90;99.90;;;;;;4961157;28;20055;-80
2023/04/27 10:21:34;;;;;;;4.65;3.30;;;10.80;99.90;;;;;;4969405;28;20050;-81
2023/04/27 10:24:07;;;;;;;10.10;3.70;;;10.00;99.90;;;;;;4961061;28;20047;-80
2023/04/27 10:26:33;;;;;;;4.22;2.45;;;10.80;99.90;;;;;;4952399;28;20051;-80
2023/04/27 10:29:06;;;;;;;3.33;2.70;;;12.40;99.90;;;;;;4928718;29;20058;-81
2023/04/27 10:31:32;;;;;;;3.40;2.95;;;10.30;99.90;;;;;;4930145;28;20047;-81
2023/04/27 10:34:09;;;;;;;3.72;2.65;;;10.30;99.90;;;;;;4947378;28;20286;-81
2023/04/27 10:36:36;;;;;;;8.38;3.70;;;11.10;99.90;;;;;;4928396;28;20051;-81
2023/04/27 10:39:05;;;;;;;5.22;3.20;;;11.50;99.90;;;;;;4934049;28;20061;-81
2023/04/27 10:41:35;;;;;;;7.35;3.17;;;10.50;99.90;;;;;;4945251;28;20053;-81
2023/04/27 10:44:17;;;;;;;5.55;2.75;;;13.00;99.90;;;;;;4944074;29;20094;-81
2023/04/27 10:46:50;;;;;;;9.02;3.72;;;10.50;99.90;;;;;;4960687;28;20180;-80
2023/04/27 10:49:16;;;;;;;5.85;3.25;;;10.40;99.90;;;;;;4944177;28;20082;-81
2023/04/27 10:51:42;;;;;;;8.57;3.72;;;10.40;99.90;;;;;;4948541;28;20496;-80
2023/04/27 10:54:07;;;;;;;5.93;3.28;;;12.00;99.90;;;;;;4955088;28;20081;-80
2023/04/27 10:56:33;;;;;;;4.50;3.00;;;12.40;99.90;;;;;;4937544;28;20579;-80
2023/04/27 10:59:06;;;;;;;8.23;2.95;;;12.40;99.90;;;;;;4927866;29;20047;-80
2023/04/27 11:01:32;;;;;;;5.07;3.42;;;10.30;99.90;;;;;;4946427;28;20072;-81
2023/04/27 11:04:00;;;;;;;3.83;2.97;;;10.40;99.90;;;;;;4963145;28;20054;-80
2023/04/27 11:06:30;;;;;;;7.20;3.67;;;10.40;99.90;;;;;;4961688;28;20063;-80
2023/04/27 11:08:56;;;;;;;7.82;3.75;;;10.50;99.90;;;;;;4949691;28;20062;-79
2023/04/27 11:11:23;;;;;;;8.15;3.70;;;10.50;99.90;;;;;;4947027;28;20047;-81
2023/04/27 11:13:51;;;;;;;9.18;5.72;;;11.50;99.90;;;;;;4928133;29;20087;-80
2023/04/27 11:16:20;;;;;;;8.85;5.57;;;10.20;99.90;;;;;;4952316;28;20384;-80
2023/04/27 11:18:46;;;;;;;7.35;4.88;;;12.30;99.90;;;;;;4949330;28;20483;-80
2023/04/27 11:21:21;;;;;;;4.15;3.38;;;12.60;99.90;;;;;;4965639;28;20086;-80
2023/04/27 11:23:46;;;;;;;6.90;3.78;;;10.80;99.90;;;;;;4948510;28;20517;-80
2023/04/27 11:26:16;;;;;;;7.18;3.90;;;10.90;99.90;;;;;;4948436;28;20055;-80
2023/04/27 11:28:43;;;;;;;7.00;4.03;;;10.90;99.90;;;;;;4929056;28;20054;-80
2023/04/27 11:31:10;;;;;;;8.90;4.65;;;12.50;99.90;;;;;;4962408;28;20065;-81
2023/04/27 11:33:39;;;;;;;7.40;4.00;;;12.10;99.90;;;;;;4946824;28;20495;-80
2023/04/27 11:36:15;;;;;;;9.57;4.55;;;12.30;99.90;;;;;;4955030;28;20046;-80
2023/04/27 11:38:41;;;;;;;9.07;4.70;;;10.90;99.90;;;;;;4960481;28;20476;-80
2023/04/27 11:41:07;;;;;;;7.57;4.30;;;11.90;99.90;;;;;;4927437;29;20577;-80
2023/04/27 11:43:33;;;;;;;7.95;4.18;;;12.10;99.90;;;;;;4943059;28;20109;-80
2023/04/27 11:46:14;;;;;;;10.55;4.75;;;12.00;99.90;;;;;;4946982;29;20373;-80
2023/04/27 11:48:40;;;;;;;6.03;3.67;;;12.30;99.90;;;;;;4964669;28;20065;-79
2023/04/27 11:51:09;;;;;;;6.88;3.70;;;10.50;99.90;;;;;;4947902;28;20054;-79
2023/04/27 11:53:36;;;;;;;7.13;4.55;;;10.50;99.90;;;;;;4957153;28;20122;-80
2023/04/27 11:56:09;;;;;;;6.93;4.65;;;10.50;99.90;;;;;;4965373;28;20061;-80
2023/04/27 11:58:36;;;;;;;9.68;5.15;;;10.50;99.90;;;;;;4950564;28;20054;-80
2023/04/27 12:01:04;;;;;;;8.73;4.60;;;10.70;99.90;;;;;;4949416;28;20054;-80
2023/04/27 12:03:30;;;;;;;12.10;4.78;;;10.30;99.90;;;;;;4945938;28;20046;-79
2023/04/27 12:05:56;;;;;;;9.32;5.50;;;10.30;99.90;;;;;;4960728;28;20558;-80
2023/04/27 12:08:22;;;;;;;10.05;5.00;;;10.30;99.90;;;;;;4943842;29;20059;-80
2023/04/27 12:10:48;;;;;;;10.45;5.38;;;10.30;99.90;;;;;;4914716;28;20050;-80
2023/04/27 12:13:14;;;;;;;9.55;5.30;;;10.30;99.90;;;;;;4954545;28;20113;-80
2023/04/27 12:15:41;;;;;;;8.05;5.07;;;10.30;99.90;;;;;;4929519;28;20090;-82
2023/04/27 12:18:07;;;;;;;11.35;5.45;;;12.40;99.90;;;;;;4936322;28;20082;-83
2023/04/27 12:20:37;;;;;;;10.43;5.28;;;11.50;99.90;;;;;;4948497;28;20081;-80
2023/04/27 12:23:02;;;;;;;11.55;6.45;;;11.00;99.90;;;;;;4949882;28;20070;-81
2023/04/27 12:25:29;;;;;;;9.23;4.68;;;12.50;99.90;;;;;;4930873;28;20402;-81
2023/04/27 12:27:54;;;;;;;8.40;3.92;;;10.30;99.90;;;;;;4948995;28;20673;-77
2023/04/27 12:30:23;;;;;;;6.18;3.53;;;10.20;99.90;;;;;;4928404;29;20121;-80
2023/04/27 12:32:51;;;;;;;5.50;2.90;;;12.30;99.90;;;;;;4943748;28;20109;-80
2023/04/27 12:35:19;;;;;;;4.78;3.03;;;10.30;99.90;;;;;;4942751;29;20047;-80
2023/04/27 12:37:47;;;;;;;6.50;2.90;;;10.60;99.90;;;;;;4929031;28;20061;-81
2023/04/27 12:40:13;;;;;;;4.65;2.85;;;10.10;99.90;;;;;;4954576;28;20051;-81
2023/04/27 12:42:38;;;;;;;5.63;3.45;;;10.40;99.90;;;;;;4936894;28;20556;-80
2023/04/27 12:45:06;;;;;;;4.80;2.70;;;12.30;99.90;;;;;;4927063;29;20393;-79
2023/04/27 12:47:33;;;;;;;4.20;3.00;;;10.50;99.90;;;;;;4943507;28;20051;-80
2023/04/27 12:49:59;;;;;;;8.85;3.35;;;;;;;;;;4938000;28;20039;-80
2023/04/27 12:52:26;;;;;;;6.03;2.65;;;10.60;99.90;;;;;;4944936;28;20193;-80
2023/04/27 12:54:56;;;;;;;4.53;3.08;;;11.90;99.90;;;;;;4960009;28;20166;-80